Time;durP1;ratioP1;P1;durP2;ratioP2;P2;SDS_P1;SDS_P2;PMS_P1;PMS_P2;Temp;Humidity;BMP_temperature;BMP_pressure;BME280_temperature;BME280_humidity;BME280_pressure;Samples;Min_cycle;Max_cycle;Signal;HPM_P1;HPM_P2
2021/01/06 00:00:45;;;;;;;11.97;6.67;;;4.40;93.60;;;;;;5001160;28;20042;-74
2021/01/06 00:03:20;;;;;;;14.00;6.70;;;4.40;93.70;;;;;;5011398;28;20088;-74
2021/01/06 00:06:09;;;;;;;10.27;5.93;;;4.50;93.70;;;;;;5010565;28;20046;-74
2021/01/06 00:08:36;;;;;;;11.90;6.33;;;4.40;93.60;;;;;;5001213;28;20109;-74
2021/01/06 00:11:03;;;;;;;14.17;6.63;;;4.40;93.70;;;;;;5011749;28;20044;-74
2021/01/06 00:13:29;;;;;;;13.70;6.93;;;4.40;93.70;;;;;;5010801;28;20124;-74
2021/01/06 00:15:57;;;;;;;11.80;5.97;;;4.40;93.70;;;;;;5010122;28;20112;-74
2021/01/06 00:18:25;;;;;;;15.47;7.47;;;4.40;93.70;;;;;;4994192;28;20060;-74
2021/01/06 00:20:52;;;;;;;11.70;6.67;;;4.40;93.80;;;;;;5010305;28;20050;-74
2021/01/06 00:23:19;;;;;;;12.30;6.93;;;4.40;93.80;;;;;;5009934;28;20441;-74
2021/01/06 00:25:46;;;;;;;13.20;6.77;;;4.40;93.80;;;;;;5010455;28;20136;-74
2021/01/06 00:28:14;;;;;;;15.37;7.23;;;4.40;93.80;;;;;;4994228;28;20041;-73
2021/01/06 00:30:56;;;;;;;14.00;7.13;;;4.40;93.80;;;;;;5012090;28;20108;-74
2021/01/06 00:33:26;;;;;;;14.63;7.40;;;4.40;93.80;;;;;;5009715;28;20049;-74
2021/01/06 00:36:14;;;;;;;13.77;7.40;;;4.40;93.80;;;;;;5011051;28;20643;-74
2021/01/06 00:38:40;;;;;;;12.03;6.40;;;4.30;93.80;;;;;;5008098;28;20046;-74
2021/01/06 00:41:07;;;;;;;12.83;6.40;;;4.40;93.80;;;;;;5012059;28;20084;-74
2021/01/06 00:43:34;;;;;;;12.97;6.37;;;4.30;93.80;;;;;;5010668;28;20158;-74
2021/01/06 00:46:00;;;;;;;12.70;6.30;;;4.40;93.90;;;;;;5006410;28;20122;-73
2021/01/06 00:48:27;;;;;;;11.80;6.27;;;4.40;93.80;;;;;;4993958;28;20080;-77
2021/01/06 00:50:58;;;;;;;13.57;6.77;;;4.40;93.90;;;;;;5018626;28;20049;-73
2021/01/06 00:53:27;;;;;;;14.83;6.63;;;4.40;93.80;;;;;;5020515;28;20073;-73
2021/01/06 00:55:59;;;;;;;12.73;6.07;;;4.40;93.80;;;;;;5043508;28;20042;-73
2021/01/06 00:58:27;;;;;;;15.13;7.07;;;4.40;93.80;;;;;;4994105;28;20057;-74
2021/01/06 01:00:56;;;;;;;14.00;7.47;;;4.40;93.80;;;;;;5011982;28;20485;-73
2021/01/06 01:03:29;;;;;;;14.97;7.30;;;4.40;93.80;;;;;;4994698;28;20049;-74
2021/01/06 01:05:58;;;;;;;12.80;6.43;;;4.40;93.80;;;;;;4999130;28;20111;-73
2021/01/06 01:08:24;;;;;;;13.20;6.40;;;4.40;93.80;;;;;;5011271;28;20096;-73
2021/01/06 01:10:52;;;;;;;13.50;6.60;;;4.30;93.80;;;;;;4990968;28;20049;-74
2021/01/06 01:13:22;;;;;;;9.07;5.07;;;4.40;93.80;;;;;;5011068;28;20038;-73
2021/01/06 01:15:52;;;;;;;12.43;5.50;;;4.40;93.80;;;;;;5028097;28;20041;-73
2021/01/06 01:18:22;;;;;;;10.07;5.33;;;4.30;93.80;;;;;;5023872;28;20412;-73
2021/01/06 01:20:51;;;;;;;10.73;5.77;;;4.30;93.80;;;;;;5013524;28;20041;-74
2021/01/06 01:23:19;;;;;;;10.93;5.30;;;4.40;93.90;;;;;;5024620;28;20069;-73
2021/01/06 01:25:47;;;;;;;11.57;6.57;;;4.40;93.80;;;;;;5015390;28;20038;-73
2021/01/06 01:28:15;;;;;;;13.00;7.17;;;4.40;93.80;;;;;;5032036;28;20425;-73
2021/01/06 01:30:42;;;;;;;10.33;5.10;;;4.40;93.80;;;;;;5021101;28;20096;-73
2021/01/06 01:33:08;;;;;;;12.30;6.43;;;4.40;93.80;;;;;;5028187;28;20038;-73
2021/01/06 01:35:35;;;;;;;13.27;6.37;;;4.40;93.80;;;;;;5013569;28;20048;-73
2021/01/06 01:38:04;;;;;;;13.93;7.43;;;4.30;93.80;;;;;;5025088;28;20046;-74
2021/01/06 01:40:32;;;;;;;11.57;6.00;;;4.40;93.80;;;;;;5017937;28;20087;-74
2021/01/06 01:43:01;;;;;;;10.63;5.80;;;4.30;93.70;;;;;;5023952;28;20091;-74
2021/01/06 01:45:44;;;;;;;10.43;5.20;;;4.30;93.80;;;;;;5033721;28;20042;-74
2021/01/06 01:48:42;;;;;;;11.75;6.43;;;4.30;93.80;;;;;;5032979;28;20042;-73
2021/01/06 01:51:31;;;;;;;11.77;6.10;;;4.30;93.80;;;;;;5017346;28;20073;-73
2021/01/06 01:54:04;;;;;;;11.27;6.03;;;4.30;93.80;;;;;;5022698;28;20037;-74
2021/01/06 01:57:04;;;;;;;9.45;5.05;;;4.30;93.80;;;;;;5023722;28;20041;-74
2021/01/06 01:59:50;;;;;;;9.27;5.53;;;4.30;93.80;;;;;;5024763;28;20034;-73
2021/01/06 02:02:37;;;;;;;9.37;5.17;;;4.30;93.80;;;;;;5018667;28;20367;-73
2021/01/06 02:05:08;;;;;;;8.47;4.63;;;4.30;93.80;;;;;;5028839;28;20046;-73
2021/01/06 02:07:42;;;;;;;10.20;5.43;;;4.30;93.80;;;;;;5029184;28;20049;-73
2021/01/06 02:10:18;;;;;;;9.40;5.07;;;4.30;93.80;;;;;;5027497;28;20099;-73
2021/01/06 02:12:59;;;;;;;10.23;5.03;;;4.30;93.80;;;;;;5032951;28;20088;-73
2021/01/06 02:16:04;;;;;;;9.40;5.23;;;4.40;93.80;;;;;;5050786;28;20050;-73
2021/01/06 02:18:30;;;;;;;11.27;6.07;;;4.40;93.80;;;;;;5008562;28;20049;-73
2021/01/06 02:21:25;;;;;;;10.60;6.30;;;4.30;93.80;;;;;;5024130;28;20037;-73
2021/01/06 02:23:54;;;;;;;9.83;5.70;;;4.30;93.70;;;;;;5028912;28;20062;-73
2021/01/06 02:26:21;;;;;;;9.30;5.03;;;4.30;93.80;;;;;;5028629;28;20041;-73
2021/01/06 02:28:48;;;;;;;9.60;5.93;;;4.30;93.80;;;;;;5012854;28;20104;-73
2021/01/06 02:31:17;;;;;;;11.37;5.67;;;4.20;93.70;;;;;;5010648;28;20071;-73
2021/01/06 02:33:44;;;;;;;10.70;5.93;;;4.30;93.70;;;;;;5029221;28;20046;-73
2021/01/06 02:36:11;;;;;;;13.27;7.60;;;4.20;93.70;;;;;;5025217;28;20041;-74
2021/01/06 02:38:38;;;;;;;11.80;5.73;;;4.20;93.90;;;;;;5031064;28;20061;-73
2021/01/06 02:41:05;;;;;;;12.03;6.53;;;4.20;93.70;;;;;;5023362;28;20053;-73
2021/01/06 02:43:32;;;;;;;12.47;6.63;;;4.20;93.80;;;;;;5025172;28;20042;-74
2021/01/06 02:45:59;;;;;;;13.17;7.10;;;4.20;93.70;;;;;;5021532;28;20111;-73
2021/01/06 02:48:26;;;;;;;10.73;6.17;;;4.20;93.70;;;;;;5009265;28;20058;-73
2021/01/06 02:51:00;;;;;;;12.63;6.63;;;4.20;93.70;;;;;;5014078;28;20072;-74
2021/01/06 02:53:39;;;;;;;13.00;7.20;;;4.10;93.70;;;;;;5021936;28;20065;-73
2021/01/06 02:56:07;;;;;;;14.00;7.50;;;4.10;93.60;;;;;;5018126;28;20482;-73
2021/01/06 02:58:35;;;;;;;11.87;6.73;;;4.10;93.70;;;;;;5015331;28;20046;-73
2021/01/06 03:01:01;;;;;;;11.13;6.13;;;4.10;93.60;;;;;;5025286;28;20066;-73
2021/01/06 03:03:33;;;;;;;12.07;6.17;;;4.10;93.60;;;;;;5015098;28;20084;-74
2021/01/06 03:06:20;;;;;;;11.00;5.93;;;4.10;93.70;;;;;;5018082;28;20092;-74
2021/01/06 03:08:46;;;;;;;10.97;5.63;;;4.20;93.70;;;;;;5017342;28;20069;-74
2021/01/06 03:11:13;;;;;;;12.40;5.70;;;4.10;93.70;;;;;;5015092;28;20046;-74
2021/01/06 03:13:40;;;;;;;9.30;4.50;;;4.10;93.70;;;;;;5019461;28;20429;-73
2021/01/06 03:16:07;;;;;;;8.43;4.57;;;4.20;93.70;;;;;;5004052;28;20045;-73
2021/01/06 03:18:34;;;;;;;8.53;4.53;;;4.20;93.80;;;;;;5024863;28;20046;-74
2021/01/06 03:21:04;;;;;;;7.23;3.83;;;4.20;93.70;;;;;;5026159;28;20041;-74
2021/01/06 03:23:46;;;;;;;9.20;4.40;;;4.20;93.70;;;;;;5013018;28;20045;-73
2021/01/06 03:26:17;;;;;;;9.57;4.37;;;4.20;93.70;;;;;;5021975;28;20046;-74
2021/01/06 03:28:46;;;;;;;10.03;5.57;;;4.20;94.00;;;;;;5026531;28;20044;-74
2021/01/06 03:31:17;;;;;;;10.07;5.53;;;4.20;93.70;;;;;;5019993;28;20042;-73
2021/01/06 03:34:14;;;;;;;9.80;5.33;;;4.20;93.60;;;;;;5002744;28;20033;-73
2021/01/06 03:36:45;;;;;;;11.47;6.27;;;4.20;93.60;;;;;;4998437;28;20077;-73
2021/01/06 03:39:24;;;;;;;9.23;5.10;;;4.20;93.70;;;;;;5025831;28;20042;-73
2021/01/06 03:41:51;;;;;;;13.77;5.60;;;4.20;93.70;;;;;;5008682;28;20033;-73
2021/01/06 03:44:18;;;;;;;9.37;5.13;;;4.20;93.70;;;;;;4980926;28;20564;-73
2021/01/06 03:46:54;;;;;;;9.60;5.33;;;4.20;93.70;;;;;;5017471;28;20108;-73
2021/01/06 03:49:46;;;;;;;10.27;5.50;;;4.10;93.60;;;;;;5011082;28;20115;-74
2021/01/06 03:52:58;;;;;;;12.40;6.43;;;4.10;93.60;;;;;;5017091;28;20080;-74
2021/01/06 03:55:48;;;;;;;11.43;5.60;;;4.10;93.60;;;;;;5004526;28;20068;-73
2021/01/06 03:58:35;;;;;;;10.03;5.60;;;4.10;93.60;;;;;;4996249;28;20073;-73
2021/01/06 04:01:17;;;;;;;12.43;6.80;;;4.10;93.60;;;;;;5012574;28;20034;-73
2021/01/06 04:04:03;;;;;;;10.77;5.60;;;4.10;93.60;;;;;;5013572;28;20069;-74
2021/01/06 04:06:33;;;;;;;10.50;5.53;;;4.10;93.60;;;;;;5031279;28;20053;-74
2021/01/06 04:09:04;;;;;;;11.23;6.10;;;4.00;93.60;;;;;;5029047;28;20049;-74
2021/01/06 04:11:39;;;;;;;11.67;7.20;;;4.10;93.60;;;;;;5030941;28;20060;-74
2021/01/06 04:14:06;;;;;;;11.50;5.93;;;4.00;93.50;;;;;;5003220;28;20081;-74
2021/01/06 04:16:32;;;;;;;11.47;6.60;;;4.00;93.60;;;;;;5013652;28;20507;-74
2021/01/06 04:18:59;;;;;;;11.47;6.53;;;4.00;93.60;;;;;;5019016;28;20092;-74
2021/01/06 04:21:29;;;;;;;13.67;7.70;;;4.00;93.60;;;;;;5026083;28;20030;-74
2021/01/06 04:23:56;;;;;;;13.67;7.03;;;4.00;93.50;;;;;;5022081;28;20045;-73
2021/01/06 04:26:23;;;;;;;12.50;5.83;;;4.00;93.60;;;;;;5015000;28;20080;-73
2021/01/06 04:28:50;;;;;;;12.60;6.90;;;4.00;93.60;;;;;;4994041;28;20049;-74
2021/01/06 04:31:19;;;;;;;13.70;7.93;;;4.00;93.50;;;;;;5011926;28;20046;-74
2021/01/06 04:33:53;;;;;;;15.10;8.43;;;4.00;93.50;;;;;;5026459;28;20133;-74
2021/01/06 04:36:31;;;;;;;13.53;7.57;;;4.00;93.50;;;;;;5011252;28;20134;-73
2021/01/06 04:39:01;;;;;;;11.23;6.43;;;3.90;93.40;;;;;;5011852;28;20404;-73
2021/01/06 04:41:37;;;;;;;12.93;7.07;;;3.90;93.50;;;;;;5024847;28;20064;-73
2021/01/06 04:44:24;;;;;;;12.87;6.27;;;3.90;93.50;;;;;;5016346;28;20042;-74
2021/01/06 04:47:19;;;;;;;12.77;6.27;;;3.90;93.50;;;;;;5014909;28;20100;-73
2021/01/06 04:50:23;;;;;;;10.73;5.33;;;3.90;93.50;;;;;;5030184;28;20155;-73
2021/01/06 04:53:24;;;;;;;11.47;5.43;;;3.80;93.50;;;;;;5038286;28;20431;-74
2021/01/06 04:56:11;;;;;;;11.93;6.73;;;3.80;93.60;;;;;;4999584;28;20429;-73
2021/01/06 04:59:10;;;;;;;14.17;6.43;;;3.70;93.60;;;;;;5016564;28;20058;-74
2021/01/06 05:02:02;;;;;;;11.57;5.87;;;3.70;93.60;;;;;;5018396;28;20076;-73
2021/01/06 05:04:46;;;;;;;15.70;7.40;;;3.70;93.60;;;;;;5011041;28;20111;-74
2021/01/06 05:07:37;;;;;;;10.33;5.10;;;3.70;93.60;;;;;;5003675;28;20088;-73
2021/01/06 05:10:19;;;;;;;10.10;6.10;;;3.70;93.60;;;;;;5022726;28;20045;-74
2021/01/06 05:12:48;;;;;;;12.37;6.80;;;3.70;93.90;;;;;;5003609;28;20053;-74
2021/01/06 05:15:34;;;;;;;11.63;5.77;;;3.70;93.60;;;;;;5028628;28;20489;-74
2021/01/06 05:18:01;;;;;;;11.60;6.43;;;3.70;93.60;;;;;;5014315;28;20037;-74
2021/01/06 05:20:28;;;;;;;12.00;5.90;;;3.70;93.60;;;;;;4992852;28;20073;-74
2021/01/06 05:22:54;;;;;;;12.03;5.87;;;3.70;93.70;;;;;;5016462;28;20045;-74
2021/01/06 05:25:21;;;;;;;15.10;6.33;;;3.70;93.60;;;;;;5034424;28;20084;-74
2021/01/06 05:27:50;;;;;;;10.20;4.60;;;3.80;93.70;;;;;;5024572;28;20560;-74
2021/01/06 05:30:44;;;;;;;9.03;5.07;;;3.80;93.70;;;;;;5024955;28;20080;-73
2021/01/06 05:33:18;;;;;;;10.48;5.03;;;3.80;93.60;;;;;;5025731;28;20069;-73
2021/01/06 05:35:47;;;;;;;8.60;4.60;;;3.70;93.60;;;;;;5031021;28;20033;-74
2021/01/06 05:38:15;;;;;;;8.53;4.97;;;3.70;93.70;;;;;;5017617;28;20516;-74
2021/01/06 05:40:43;;;;;;;10.43;4.57;;;3.70;93.70;;;;;;5033296;28;20381;-74
2021/01/06 05:43:39;;;;;;;8.93;4.33;;;3.70;93.70;;;;;;5033205;28;20064;-74
2021/01/06 05:46:13;;;;;;;8.27;3.83;;;3.70;93.70;;;;;;5018795;28;20068;-74
2021/01/06 05:48:57;;;;;;;8.37;3.60;;;3.70;93.80;;;;;;5025017;28;20443;-73
2021/01/06 05:51:26;;;;;;;7.07;3.40;;;3.70;93.80;;;;;;5030894;28;20049;-74
2021/01/06 05:53:54;;;;;;;7.83;4.20;;;3.70;93.80;;;;;;5029516;28;20037;-73
2021/01/06 05:56:30;;;;;;;7.57;3.83;;;3.70;93.70;;;;;;5023148;28;20037;-74
2021/01/06 05:59:04;;;;;;;7.70;3.57;;;3.70;93.70;;;;;;5009633;28;20033;-74
2021/01/06 06:01:46;;;;;;;7.30;3.97;;;3.70;93.70;;;;;;5024392;28;20054;-73
2021/01/06 06:04:44;;;;;;;7.17;3.20;;;3.70;93.70;;;;;;5009278;28;20038;-74
2021/01/06 06:07:13;;;;;;;7.67;3.87;;;3.70;93.70;;;;;;5003122;28;20073;-74
2021/01/06 06:10:02;;;;;;;7.53;3.47;;;3.60;93.70;;;;;;5025593;28;20038;-74
2021/01/06 06:12:44;;;;;;;7.43;3.73;;;3.60;93.70;;;;;;5019006;28;20045;-74
2021/01/06 06:15:33;;;;;;;7.03;3.63;;;3.60;93.70;;;;;;5004116;28;20108;-74
2021/01/06 06:18:14;;;;;;;6.53;2.80;;;3.60;93.70;;;;;;5001579;28;20192;-74
2021/01/06 06:21:10;;;;;;;5.27;2.70;;;3.60;93.70;;;;;;5022421;28;20061;-74
2021/01/06 06:24:02;;;;;;;6.97;3.40;;;3.50;93.70;;;;;;5001905;28;20425;-74
2021/01/06 06:26:34;;;;;;;7.10;2.80;;;3.50;93.70;;;;;;5007651;28;20057;-74
2021/01/06 06:29:10;;;;;;;6.38;3.60;;;3.50;93.70;;;;;;5017818;28;20057;-74
2021/01/06 06:31:38;;;;;;;6.77;2.83;;;3.50;93.70;;;;;;5028638;28;20052;-74
2021/01/06 06:34:07;;;;;;;6.70;3.20;;;3.50;93.70;;;;;;5019784;28;20053;-74
2021/01/06 06:36:46;;;;;;;7.83;3.97;;;3.50;93.70;;;;;;5024094;28;20057;-74
2021/01/06 06:39:32;;;;;;;7.17;3.60;;;3.50;94.00;;;;;;5019759;28;20123;-74
2021/01/06 06:42:11;;;;;;;7.43;3.30;;;3.40;93.70;;;;;;5025716;28;20452;-74
2021/01/06 06:44:51;;;;;;;6.87;2.63;;;3.40;93.70;;;;;;5013390;28;20049;-74
2021/01/06 06:47:22;;;;;;;5.50;2.37;;;3.40;93.70;;;;;;5011624;28;20050;-74
2021/01/06 06:50:39;;;;;;;8.07;3.13;;;3.30;93.80;;;;;;5013535;28;20076;-74
2021/01/06 06:53:32;;;;;;;5.07;2.40;;;3.30;93.70;;;;;;5008831;28;20076;-74
2021/01/06 06:56:16;;;;;;;8.60;3.60;;;3.20;93.80;;;;;;5020877;28;20066;-74
2021/01/06 06:59:04;;;;;;;7.30;3.80;;;3.20;93.80;;;;;;5014389;28;20289;-74
2021/01/06 07:01:45;;;;;;;7.23;3.40;;;3.20;93.70;;;;;;5032586;28;20053;-74
2021/01/06 07:04:20;;;;;;;7.50;3.43;;;3.20;93.80;;;;;;5019419;28;20044;-74
2021/01/06 07:06:53;;;;;;;8.20;3.80;;;3.10;93.80;;;;;;5027696;28;20115;-75
2021/01/06 07:09:28;;;;;;;8.63;4.47;;;3.20;93.80;;;;;;5018592;28;20505;-74
2021/01/06 07:12:07;;;;;;;7.17;2.87;;;3.10;93.80;;;;;;5022395;28;20034;-74
2021/01/06 07:14:47;;;;;;;6.27;2.97;;;3.10;93.80;;;;;;5035766;28;20053;-75
2021/01/06 07:17:38;;;;;;;7.83;3.40;;;3.10;93.80;;;;;;5026309;28;20091;-75
2021/01/06 07:20:10;;;;;;;7.60;3.10;;;3.20;93.90;;;;;;5012497;28;20061;-74
2021/01/06 07:22:41;;;;;;;6.90;2.70;;;3.20;93.90;;;;;;5012084;28;20655;-74
2021/01/06 07:25:17;;;;;;;7.23;3.13;;;3.30;93.90;;;;;;5013297;28;20057;-74
2021/01/06 07:27:46;;;;;;;5.83;2.93;;;3.30;93.80;;;;;;5025962;28;20103;-74
2021/01/06 07:30:33;;;;;;;6.80;3.00;;;3.40;93.80;;;;;;5019303;28;20049;-74
2021/01/06 07:33:08;;;;;;;5.50;2.20;;;3.40;93.80;;;;;;5021109;28;20053;-74
2021/01/06 07:35:37;;;;;;;4.70;2.10;;;3.50;94.00;;;;;;5064878;28;20053;-74
2021/01/06 07:38:06;;;;;;;6.50;2.07;;;3.50;93.80;;;;;;5003527;28;20040;-74
2021/01/06 07:40:38;;;;;;;7.67;3.27;;;3.50;93.80;;;;;;4999154;28;20043;-74
2021/01/06 07:43:07;;;;;;;7.57;2.90;;;3.50;93.70;;;;;;5025078;28;20456;-74
2021/01/06 07:45:57;;;;;;;7.43;3.43;;;3.60;93.70;;;;;;5026551;28;20046;-74
2021/01/06 07:48:48;;;;;;;5.87;3.10;;;3.60;93.60;;;;;;5022474;28;20054;-74
2021/01/06 07:51:25;;;;;;;7.10;2.90;;;3.60;93.60;;;;;;5012845;28;20116;-74
2021/01/06 07:53:51;;;;;;;6.10;2.60;;;3.60;93.60;;;;;;5024149;28;20038;-74
2021/01/06 07:56:35;;;;;;;5.80;2.87;;;3.60;93.70;;;;;;5024955;28;20445;-74
2021/01/06 07:59:13;;;;;;;4.63;2.20;;;3.60;93.60;;;;;;5018796;28;20033;-74
2021/01/06 08:02:30;;;;;;;5.97;2.60;;;3.60;93.70;;;;;;5018843;28;20490;-74
2021/01/06 08:05:24;;;;;;;5.07;2.00;;;3.70;93.60;;;;;;4966061;28;20048;-74
2021/01/06 08:08:10;;;;;;;5.33;2.10;;;3.70;93.60;;;;;;5020023;28;20053;-74
2021/01/06 08:10:40;;;;;;;5.43;2.07;;;3.70;93.60;;;;;;5023150;28;20042;-74
2021/01/06 08:13:15;;;;;;;5.53;2.50;;;3.70;93.60;;;;;;5021240;28;20091;-74
2021/01/06 08:15:44;;;;;;;6.43;2.63;;;3.70;93.60;;;;;;5016013;28;20100;-74
2021/01/06 08:18:33;;;;;;;5.27;2.47;;;3.70;93.60;;;;;;5030850;28;20044;-74
2021/01/06 08:21:20;;;;;;;6.87;2.83;;;3.80;93.60;;;;;;5013745;28;20103;-73
2021/01/06 08:24:05;;;;;;;8.73;4.33;;;3.70;93.60;;;;;;5016110;28;20449;-74
2021/01/06 08:26:34;;;;;;;7.57;3.63;;;3.80;93.60;;;;;;4998204;28;20056;-74
2021/01/06 08:29:15;;;;;;;8.50;4.23;;;3.70;93.50;;;;;;5014602;28;20042;-74
2021/01/06 08:31:42;;;;;;;10.07;4.97;;;3.70;93.50;;;;;;5017923;28;20091;-74
2021/01/06 08:34:23;;;;;;;11.00;5.00;;;3.60;93.50;;;;;;5028639;28;20099;-78
2021/01/06 08:37:02;;;;;;;11.30;6.30;;;3.70;93.50;;;;;;5028939;28;20541;-78
2021/01/06 08:39:31;;;;;;;11.67;5.73;;;3.60;93.40;;;;;;5032008;28;20042;-78
2021/01/06 08:42:08;;;;;;;10.50;5.13;;;3.60;93.50;;;;;;5031418;28;20095;-78
2021/01/06 08:44:42;;;;;;;9.77;5.43;;;3.60;93.40;;;;;;5020015;28;20041;-78
2021/01/06 08:47:12;;;;;;;11.17;5.20;;;3.60;93.40;;;;;;5015895;28;20481;-79
2021/01/06 08:49:48;;;;;;;10.60;5.10;;;3.60;93.40;;;;;;5022745;28;20068;-78
2021/01/06 08:52:17;;;;;;;10.47;5.50;;;3.60;93.40;;;;;;5031545;28;20083;-78
2021/01/06 08:54:46;;;;;;;11.27;5.40;;;3.60;93.40;;;;;;5020529;28;20038;-78
2021/01/06 08:57:33;;;;;;;9.40;4.57;;;3.60;93.40;;;;;;5028345;28;20040;-77
2021/01/06 09:00:14;;;;;;;9.90;4.90;;;3.60;93.30;;;;;;5019822;28;20510;-78
2021/01/06 09:02:52;;;;;;;8.40;4.43;;;3.60;93.30;;;;;;5006158;28;20440;-78
2021/01/06 09:05:45;;;;;;;9.40;4.50;;;3.60;93.30;;;;;;5031214;28;20073;-79
2021/01/06 09:08:14;;;;;;;8.10;3.97;;;3.60;93.30;;;;;;5032318;28;20042;-77
2021/01/06 09:10:49;;;;;;;7.77;4.13;;;3.70;93.40;;;;;;5019005;28;20181;-78
2021/01/06 09:13:21;;;;;;;8.50;3.40;;;3.70;93.30;;;;;;5027198;28;20520;-79
2021/01/06 09:16:04;;;;;;;8.37;4.03;;;3.70;93.30;;;;;;5028140;28;20128;-77
2021/01/06 09:18:38;;;;;;;7.50;4.00;;;3.80;93.30;;;;;;5014975;28;20453;-78
2021/01/06 09:21:17;;;;;;;8.20;4.30;;;3.80;93.50;;;;;;5026947;28;20486;-78
2021/01/06 09:23:48;;;;;;;8.67;3.73;;;3.80;93.20;;;;;;5032794;28;20037;-77
2021/01/06 09:26:20;;;;;;;8.73;4.03;;;3.80;93.20;;;;;;5031462;28;20052;-78
2021/01/06 09:29:00;;;;;;;9.90;4.53;;;3.80;93.20;;;;;;5014675;28;20521;-77
2021/01/06 09:31:27;;;;;;;7.80;3.70;;;3.80;93.10;;;;;;5020288;28;20050;-77
2021/01/06 09:33:57;;;;;;;7.20;3.57;;;3.80;93.10;;;;;;5026678;28;20038;-77
2021/01/06 09:36:25;;;;;;;9.67;4.50;;;3.90;93.10;;;;;;5017430;28;20077;-77
2021/01/06 09:38:55;;;;;;;8.30;4.43;;;3.90;93.10;;;;;;5015372;28;20057;-77
2021/01/06 09:41:26;;;;;;;8.43;4.60;;;3.90;93.00;;;;;;5018321;28;20775;-77
2021/01/06 09:43:59;;;;;;;7.50;4.37;;;3.80;92.90;;;;;;5000584;28;20397;-78
2021/01/06 09:46:31;;;;;;;8.95;4.82;;;3.90;93.00;;;;;;5029843;28;20042;-78
2021/01/06 09:49:08;;;;;;;8.27;4.53;;;3.90;93.00;;;;;;5024269;28;20065;-77
2021/01/06 09:51:38;;;;;;;7.53;3.67;;;3.90;93.00;;;;;;5014161;28;20046;-78
2021/01/06 09:54:06;;;;;;;9.63;4.97;;;4.00;93.00;;;;;;5019753;28;20049;-77
2021/01/06 09:56:35;;;;;;;8.27;4.47;;;4.00;92.90;;;;;;5034225;28;20069;-76
2021/01/06 09:59:16;;;;;;;7.77;4.10;;;4.00;92.90;;;;;;5034513;28;20481;-77
2021/01/06 10:02:01;;;;;;;7.57;4.00;;;4.00;92.90;;;;;;5034079;28;20042;-77
2021/01/06 10:04:33;;;;;;;8.23;3.93;;;4.00;92.90;;;;;;5003445;28;20430;-77
2021/01/06 10:07:10;;;;;;;9.77;3.70;;;4.00;92.80;;;;;;5015268;28;20525;-77
2021/01/06 10:09:41;;;;;;;7.03;3.63;;;4.00;92.90;;;;;;5030249;28;20069;-77
2021/01/06 10:12:26;;;;;;;7.80;4.30;;;4.00;92.90;;;;;;5029366;28;20037;-77
2021/01/06 10:15:23;;;;;;;8.03;3.97;;;4.10;92.80;;;;;;5034279;28;20099;-77
2021/01/06 10:18:31;;;;;;;8.77;3.67;;;4.10;92.80;;;;;;5023938;28;20080;-77
2021/01/06 10:21:12;;;;;;;7.93;3.47;;;4.10;92.80;;;;;;5023555;28;20046;-78
2021/01/06 10:23:41;;;;;;;7.07;3.43;;;4.10;92.80;;;;;;5050661;28;20114;-77
2021/01/06 10:26:29;;;;;;;7.60;3.87;;;4.20;92.80;;;;;;5034077;28;20104;-77
2021/01/06 10:28:57;;;;;;;6.83;3.27;;;4.20;92.80;;;;;;5006736;28;20041;-77
2021/01/06 10:31:25;;;;;;;8.87;3.63;;;4.20;92.80;;;;;;5016414;28;20046;-77
2021/01/06 10:34:04;;;;;;;7.37;3.63;;;4.20;92.80;;;;;;5016431;28;20041;-77
2021/01/06 10:36:49;;;;;;;7.90;4.23;;;4.20;92.70;;;;;;5002583;28;20042;-78
2021/01/06 10:39:30;;;;;;;6.47;3.50;;;4.30;92.80;;;;;;5033724;28;20080;-78
2021/01/06 10:42:06;;;;;;;9.03;4.10;;;4.30;92.70;;;;;;5008690;28;20037;-79
2021/01/06 10:44:59;;;;;;;8.23;4.40;;;4.20;92.60;;;;;;5032725;28;20041;-77
2021/01/06 10:47:30;;;;;;;8.47;4.80;;;4.30;92.50;;;;;;5009337;28;20049;-77
2021/01/06 10:50:31;;;;;;;9.07;4.93;;;4.10;92.50;;;;;;5033637;28;20056;-77
2021/01/06 10:53:25;;;;;;;6.57;3.50;;;4.20;92.50;;;;;;5007453;28;20462;-77
2021/01/06 10:55:56;;;;;;;7.43;3.90;;;4.20;92.60;;;;;;5006893;28;20120;-77
2021/01/06 10:58:57;;;;;;;7.60;3.40;;;4.20;92.50;;;;;;5034998;28;20033;-77
2021/01/06 11:01:26;;;;;;;9.57;4.37;;;4.20;92.50;;;;;;5014553;28;20069;-77
2021/01/06 11:04:11;;;;;;;7.37;3.40;;;4.10;92.50;;;;;;5018267;28;20104;-77
2021/01/06 11:06:59;;;;;;;7.13;3.57;;;4.20;92.50;;;;;;5024642;28;20111;-77
2021/01/06 11:09:34;;;;;;;7.73;3.43;;;4.20;92.50;;;;;;5003583;28;20050;-77
2021/01/06 11:12:19;;;;;;;6.33;3.27;;;4.20;92.40;;;;;;5021533;28;20093;-77
2021/01/06 11:15:23;;;;;;;8.23;3.90;;;4.20;92.50;;;;;;5009529;28;20261;-77
2021/01/06 11:18:17;;;;;;;6.43;2.83;;;4.20;92.40;;;;;;5018712;28;20034;-77
2021/01/06 11:21:10;;;;;;;5.37;2.60;;;4.20;92.40;;;;;;5016180;28;20072;-77
2021/01/06 11:24:00;;;;;;;4.93;2.10;;;4.20;92.50;;;;;;5016647;28;20046;-77
2021/01/06 11:26:32;;;;;;;5.83;2.20;;;4.30;92.50;;;;;;5015161;28;20905;-77
2021/01/06 11:29:11;;;;;;;5.18;2.10;;;4.30;92.50;;;;;;5023604;28;20481;-77
2021/01/06 11:31:59;;;;;;;6.40;3.00;;;4.30;92.50;;;;;;5015599;28;20109;-77
2021/01/06 11:34:31;;;;;;;6.53;2.53;;;4.30;92.40;;;;;;5022279;28;20050;-77
2021/01/06 11:36:59;;;;;;;;;;;4.30;92.30;;;;;;5031325;28;20034;-77
2021/01/06 11:39:44;;;;;;;4.90;2.00;;;4.30;92.50;;;;;;5032939;28;19925;-77
2021/01/06 11:42:15;;;;;;;4.73;1.87;;;4.30;92.40;;;;;;5031323;28;20045;-73
2021/01/06 11:45:03;;;;;;;5.20;2.20;;;4.40;92.50;;;;;;5032032;28;20053;-77
2021/01/06 11:47:34;;;;;;;4.87;2.23;;;4.40;92.40;;;;;;5021953;28;20119;-77
2021/01/06 11:50:25;;;;;;;5.10;2.00;;;4.40;92.40;;;;;;5037188;28;20042;-77
2021/01/06 11:53:07;;;;;;;4.87;2.03;;;4.50;92.40;;;;;;5005829;28;20413;-77
2021/01/06 11:55:37;;;;;;;5.03;2.10;;;4.50;92.30;;;;;;5030269;28;20087;-77
2021/01/06 11:58:14;;;;;;;5.43;2.63;;;4.50;92.60;;;;;;5026537;28;20038;-77
2021/01/06 12:00:43;;;;;;;4.67;1.83;;;4.50;92.20;;;;;;5003864;28;20084;-77
2021/01/06 12:03:13;;;;;;;4.93;1.80;;;4.50;92.30;;;;;;5023636;28;20124;-77
2021/01/06 12:06:06;;;;;;;4.27;1.60;;;4.50;92.30;;;;;;5022436;28;20072;-78
2021/01/06 12:08:42;;;;;;;3.45;1.42;;;4.60;92.30;;;;;;5026906;28;20065;-77
2021/01/06 12:11:31;;;;;;;4.40;1.87;;;4.60;92.30;;;;;;5014739;28;20050;-77
2021/01/06 12:14:16;;;;;;;4.90;1.70;;;4.70;92.20;;;;;;4994324;28;20064;-78
2021/01/06 12:17:02;;;;;;;3.63;1.80;;;4.60;92.10;;;;;;5031690;28;20091;-78
2021/01/06 12:19:48;;;;;;;4.17;1.83;;;4.60;92.10;;;;;;5025880;28;20050;-77
2021/01/06 12:22:17;;;;;;;4.13;2.00;;;4.60;92.20;;;;;;5018257;28;20073;-82
2021/01/06 12:24:51;;;;;;;4.90;1.83;;;4.60;92.10;;;;;;5021464;28;20042;-77
2021/01/06 12:27:44;;;;;;;5.10;1.80;;;4.60;92.10;;;;;;5010339;28;20053;-78
2021/01/06 12:30:11;;;;;;;4.80;1.92;;;4.60;92.10;;;;;;5020752;28;20045;-78
2021/01/06 12:32:41;;;;;;;4.43;1.30;;;4.60;92.10;;;;;;5006703;28;20835;-77
2021/01/06 12:35:17;;;;;;;4.47;2.17;;;4.70;92.20;;;;;;5028019;28;20117;-77
2021/01/06 12:37:54;;;;;;;5.33;2.77;;;4.70;91.90;;;;;;5023077;28;20072;-75
2021/01/06 12:40:24;;;;;;;6.20;2.60;;;4.70;91.90;;;;;;5012704;28;20049;-77
2021/01/06 12:42:56;;;;;;;5.10;2.37;;;4.70;91.80;;;;;;5010757;28;20046;-77
2021/01/06 12:45:47;;;;;;;3.60;1.50;;;4.70;91.90;;;;;;5029848;28;20065;-77
2021/01/06 12:48:20;;;;;;;4.67;2.00;;;4.70;91.90;;;;;;5030450;28;20497;-77
2021/01/06 12:51:03;;;;;;;4.40;1.83;;;4.70;91.90;;;;;;5031626;28;20099;-76
2021/01/06 12:53:34;;;;;;;3.90;1.50;;;4.70;92.00;;;;;;5030175;28;20046;-76
2021/01/06 12:56:04;;;;;;;3.57;1.40;;;4.70;91.80;;;;;;5030185;28;20443;-77
2021/01/06 12:58:46;;;;;;;6.00;1.97;;;4.70;91.90;;;;;;5013028;28;20038;-73
2021/01/06 13:01:25;;;;;;;5.82;2.13;;;4.70;91.70;;;;;;4997726;28;20065;-73
2021/01/06 13:04:05;;;;;;;3.80;1.30;;;4.60;91.60;;;;;;5030301;28;20051;-73
2021/01/06 13:06:41;;;;;;;3.77;1.50;;;4.60;91.70;;;;;;5019579;28;20034;-73
2021/01/06 13:09:28;;;;;;;3.73;1.37;;;4.50;91.60;;;;;;5012561;28;20041;-73
2021/01/06 13:12:21;;;;;;;3.07;1.03;;;4.50;91.60;;;;;;5017383;28;20030;-75
2021/01/06 13:15:00;;;;;;;2.27;0.97;;;4.50;91.70;;;;;;5007151;28;20053;-76
2021/01/06 13:17:37;;;;;;;4.57;2.13;;;4.50;91.70;;;;;;5009468;28;20065;-74
2021/01/06 13:20:33;;;;;;;3.63;1.40;;;4.50;91.40;;;;;;5030248;28;20038;-76
2021/01/06 13:23:30;;;;;;;3.53;1.33;;;4.50;91.50;;;;;;5018681;28;20037;-76
2021/01/06 13:26:18;;;;;;;3.47;1.40;;;4.50;91.50;;;;;;5030659;28;20055;-77
2021/01/06 13:29:22;;;;;;;3.83;1.40;;;4.50;91.50;;;;;;5017915;28;20521;-73
2021/01/06 13:32:08;;;;;;;5.82;1.63;;;4.50;91.40;;;;;;5014482;28;20057;-74
2021/01/06 13:34:37;;;;;;;3.50;1.10;;;4.50;91.60;;;;;;5033774;28;20370;-74
2021/01/06 13:37:12;;;;;;;2.70;0.97;;;4.50;91.50;;;;;;5035281;28;20037;-73
2021/01/06 13:40:10;;;;;;;2.13;0.90;;;4.50;91.50;;;;;;5033709;28;20136;-74
2021/01/06 13:42:38;;;;;;;3.43;1.87;;;4.60;91.50;;;;;;5003126;28;20123;-73
2021/01/06 13:45:10;;;;;;;2.40;0.80;;;4.50;91.50;;;;;;5030463;28;20115;-74